createdAt,value
2018-11-29T00:02:23.116Z,93.93
2018-11-29T00:04:49.912Z,93.83
2018-11-29T00:07:16.681Z,94.16
2018-11-29T00:09:43.457Z,94.09
2018-11-29T00:12:10.209Z,94.62
2018-11-29T00:14:37.007Z,94.05
2018-11-29T00:17:03.764Z,94.08
2018-11-29T00:19:30.723Z,94.06
2018-11-29T00:21:57.691Z,93.99
2018-11-29T00:24:24.540Z,94.35
2018-11-29T00:26:51.342Z,93.95
2018-11-29T00:29:18.177Z,94.07
2018-11-29T00:31:44.982Z,94.34
2018-11-29T00:34:11.821Z,93.96
2018-11-29T00:36:38.614Z,93.30
2018-11-29T00:39:06.141Z,93.27
2018-11-29T00:41:32.954Z,93.07
2018-11-29T00:43:59.770Z,93.16
2018-11-29T00:46:26.586Z,92.66
2018-11-29T00:48:53.412Z,92.31
2018-11-29T00:51:20.222Z,92.40
2018-11-29T00:53:47.026Z,92.55
2018-11-29T00:56:13.830Z,92.07
2018-11-29T00:58:40.646Z,93.30
2018-11-29T01:01:07.466Z,93.94
2018-11-29T01:03:34.369Z,93.73
2018-11-29T01:06:01.166Z,92.80
2018-11-29T01:08:27.976Z,93.75
2018-11-29T01:10:54.810Z,93.86
2018-11-29T01:13:21.616Z,94.45
2018-11-29T01:15:48.443Z,94.66
2018-11-29T01:18:15.254Z,94.75
2018-11-29T01:20:42.093Z,94.41
2018-11-29T01:23:08.885Z,94.04
2018-11-29T01:25:35.729Z,94.83
2018-11-29T01:28:02.533Z,94.75
2018-11-29T01:30:29.373Z,94.97
2018-11-29T01:32:56.193Z,94.08
2018-11-29T01:35:23.009Z,94.52
2018-11-29T01:37:49.822Z,94.23
2018-11-29T01:40:21.216Z,94.44
2018-11-29T01:42:52.265Z,94.62
2018-11-29T01:45:19.092Z,94.26
2018-11-29T01:47:45.902Z,94.58
2018-11-29T01:50:12.725Z,94.35
2018-11-29T01:52:39.514Z,94.24
2018-11-29T01:55:07.409Z,94.03
2018-11-29T01:57:34.262Z,93.91
2018-11-29T02:00:01.094Z,93.86
2018-11-29T02:02:27.909Z,93.60
2018-11-29T02:04:54.754Z,93.44
2018-11-29T02:07:21.561Z,93.22
2018-11-29T02:09:48.399Z,92.91
2018-11-29T02:12:15.206Z,93.32
2018-11-29T02:14:42.038Z,93.30
2018-11-29T02:17:08.853Z,93.30
2018-11-29T02:19:35.681Z,93.76
2018-11-29T02:22:02.477Z,93.50
2018-11-29T02:24:29.310Z,93.10
2018-11-29T02:26:56.110Z,92.55
2018-11-29T02:29:22.943Z,92.72
2018-11-29T02:31:49.759Z,92.82
2018-11-29T02:34:16.589Z,92.69
2018-11-29T02:36:43.395Z,91.75
2018-11-29T02:39:10.222Z,92.79
2018-11-29T02:41:37.031Z,93.12
2018-11-29T02:44:03.921Z,92.90
2018-11-29T02:46:30.737Z,93.18
2018-11-29T02:48:57.616Z,93.05
2018-11-29T02:51:24.427Z,92.95
2018-11-29T02:53:51.246Z,92.92
2018-11-29T02:56:18.064Z,92.98
2018-11-29T02:58:44.899Z,93.33
2018-11-29T03:01:11.710Z,93.42
2018-11-29T03:03:38.545Z,93.57
2018-11-29T03:06:05.353Z,93.80
2018-11-29T03:08:32.174Z,93.79
2018-11-29T03:10:58.959Z,94.21
2018-11-29T03:13:25.791Z,94.63
2018-11-29T03:15:52.614Z,94.43
2018-11-29T03:18:19.415Z,94.37
2018-11-29T03:20:46.250Z,95.59
2018-11-29T03:23:13.062Z,96.09
2018-11-29T03:25:39.906Z,95.55
2018-11-29T03:28:06.762Z,95.88
2018-11-29T03:30:33.590Z,95.74
2018-11-29T03:33:00.454Z,95.96
2018-11-29T03:35:27.280Z,96.37
2018-11-29T03:37:54.082Z,96.96
2018-11-29T03:40:20.909Z,96.94
2018-11-29T03:42:47.717Z,96.76
2018-11-29T03:45:15.130Z,97.58
2018-11-29T03:47:41.947Z,97.79
2018-11-29T03:50:10.861Z,98.03
2018-11-29T03:52:37.711Z,98.08
2018-11-29T03:55:05.666Z,99.04
2018-11-29T03:57:32.467Z,98.43
2018-11-29T03:59:59.294Z,98.49
2018-11-29T04:02:26.094Z,98.33
2018-11-29T04:04:52.919Z,98.69
2018-11-29T04:07:19.715Z,98.43
2018-11-29T04:09:46.553Z,98.57
2018-11-29T04:12:13.385Z,98.65
2018-11-29T04:14:40.202Z,98.32
2018-11-29T04:17:07.001Z,99.14
2018-11-29T04:19:33.836Z,98.83
2018-11-29T04:22:00.625Z,98.93
2018-11-29T04:24:27.461Z,98.70
2018-11-29T04:26:54.255Z,98.26
2018-11-29T04:29:21.071Z,97.76
2018-11-29T04:31:47.882Z,97.15
2018-11-29T04:34:14.690Z,96.62
2018-11-29T04:36:41.497Z,96.39
2018-11-29T04:39:08.366Z,96.30
2018-11-29T04:41:35.199Z,96.42
2018-11-29T04:44:02.107Z,96.93
2018-11-29T04:46:45.918Z,97.70
2018-11-29T04:49:12.755Z,96.00
2018-11-29T04:51:39.603Z,95.95
2018-11-29T04:54:07.075Z,94.79
2018-11-29T04:56:33.956Z,94.82
2018-11-29T04:59:00.729Z,93.89
2018-11-29T05:01:27.561Z,94.69
2018-11-29T05:03:54.371Z,94.29
2018-11-29T05:06:21.197Z,95.83
2018-11-29T05:08:47.979Z,95.95
2018-11-29T05:11:14.793Z,95.85
2018-11-29T05:13:41.597Z,95.16
2018-11-29T05:16:08.423Z,94.91
2018-11-29T05:18:35.237Z,94.28
2018-11-29T05:21:02.109Z,94.22
2018-11-29T05:23:28.914Z,94.45
2018-11-29T05:25:55.829Z,94.11
2018-11-29T05:28:22.646Z,94.17
2018-11-29T05:30:49.481Z,94.10
2018-11-29T05:33:16.342Z,93.15
2018-11-29T05:35:43.170Z,92.56
2018-11-29T05:38:09.975Z,92.54
2018-11-29T05:40:36.810Z,92.21
2018-11-29T05:43:03.986Z,91.98
2018-11-29T05:45:30.815Z,93.09
2018-11-29T05:47:57.618Z,92.95
2018-11-29T05:50:24.438Z,93.70
2018-11-29T05:52:51.237Z,94.18
2018-11-29T05:55:18.101Z,94.72
2018-11-29T05:57:44.852Z,94.29
2018-11-29T06:00:12.717Z,93.60
2018-11-29T06:02:39.517Z,92.97
2018-11-29T06:05:08.957Z,91.81
2018-11-29T06:07:35.789Z,91.44
2018-11-29T06:10:02.592Z,91.69
2018-11-29T06:12:29.414Z,92.17
2018-11-29T06:14:56.217Z,91.98
2018-11-29T06:17:23.061Z,92.50
2018-11-29T06:19:49.873Z,92.89
2018-11-29T06:22:16.719Z,92.36
2018-11-29T06:24:43.521Z,92.12
2018-11-29T06:27:10.345Z,92.23
2018-11-29T06:29:37.188Z,92.11
2018-11-29T06:32:04.414Z,93.15
2018-11-29T06:34:31.181Z,93.59
2018-11-29T06:36:57.974Z,94.19
2018-11-29T06:39:24.732Z,94.14
2018-11-29T06:41:51.529Z,94.44
2018-11-29T06:44:18.303Z,94.51
2018-11-29T06:46:45.084Z,95.29
2018-11-29T06:49:11.842Z,95.71
2018-11-29T06:51:38.692Z,95.21
2018-11-29T06:54:05.509Z,96.28
2018-11-29T06:56:32.297Z,97.08
2018-11-29T06:58:59.088Z,96.03
2018-11-29T07:01:25.876Z,96.60
2018-11-29T07:03:52.641Z,96.60
2018-11-29T07:06:19.436Z,96.98
2018-11-29T07:08:46.192Z,97.76
2018-11-29T07:11:12.973Z,97.28
2018-11-29T07:13:39.732Z,97.44
2018-11-29T07:16:06.538Z,97.43
2018-11-29T07:18:33.368Z,98.48
2018-11-29T07:21:11.716Z,98.26
2018-11-29T07:23:38.496Z,97.93
2018-11-29T07:26:05.556Z,97.02
2018-11-29T07:28:32.337Z,96.96
2018-11-29T07:30:59.100Z,96.15
2018-11-29T07:33:25.893Z,96.18
2018-11-29T07:35:52.660Z,95.71
2018-11-29T07:38:19.457Z,94.34
2018-11-29T07:40:46.228Z,93.58
2018-11-29T07:43:13.016Z,93.49
2018-11-29T07:45:39.797Z,93.62
2018-11-29T07:48:06.608Z,93.17
2018-11-29T07:50:33.397Z,93.91
2018-11-29T07:53:00.195Z,92.88
2018-11-29T07:55:26.960Z,93.04
2018-11-29T07:57:53.766Z,91.68
2018-11-29T08:00:20.577Z,91.42
2018-11-29T08:02:47.357Z,90.69
2018-11-29T08:05:14.610Z,91.65
2018-11-29T08:07:47.313Z,92.12
2018-11-29T08:10:11.334Z,91.74
2018-11-29T08:12:38.133Z,92.08
2018-11-29T08:15:07.384Z,92.26
2018-11-29T08:17:34.185Z,91.05
2018-11-29T08:20:00.953Z,91.39
2018-11-29T08:22:27.737Z,91.63
2018-11-29T08:24:54.542Z,91.02
2018-11-29T08:27:21.293Z,91.41
2018-11-29T08:29:48.073Z,91.79
2018-11-29T08:32:14.873Z,92.24
2018-11-29T08:34:41.673Z,92.58
2018-11-29T08:37:08.456Z,93.68
2018-11-29T08:39:35.225Z,93.54
2018-11-29T08:42:02.001Z,93.65
2018-11-29T08:44:28.776Z,92.67
2018-11-29T08:46:55.569Z,93.11
2018-11-29T08:49:22.353Z,92.79
2018-11-29T08:51:49.145Z,92.28
2018-11-29T08:54:15.901Z,91.77
2018-11-29T08:56:42.692Z,90.90
2018-11-29T08:59:09.457Z,89.47
2018-11-29T09:01:36.254Z,88.91
2018-11-29T09:04:03.017Z,88.01
2018-11-29T09:06:29.793Z,86.74
2018-11-29T09:08:56.572Z,88.11
2018-11-29T09:11:23.333Z,87.13
2018-11-29T09:13:50.121Z,88.18
2018-11-29T09:16:16.892Z,88.74
2018-11-29T09:18:43.685Z,86.96
2018-11-29T09:21:10.453Z,86.67
2018-11-29T09:23:37.354Z,87.03
2018-11-29T09:26:04.485Z,86.01
2018-11-29T09:28:31.277Z,85.98
2018-11-29T09:30:58.046Z,86.03
2018-11-29T09:33:24.844Z,86.05
2018-11-29T09:35:51.624Z,85.60
2018-11-29T09:38:18.402Z,87.24
2018-11-29T09:40:45.185Z,86.26
2018-11-29T09:43:11.976Z,86.51
2018-11-29T09:45:38.756Z,86.76
2018-11-29T09:48:05.608Z,87.44
2018-11-29T09:50:32.372Z,87.52
2018-11-29T09:52:59.156Z,85.98
2018-11-29T09:55:25.936Z,85.48
2018-11-29T09:57:52.734Z,86.79
2018-11-29T10:00:27.887Z,86.16
2018-11-29T10:02:53.917Z,86.05
2018-11-29T10:05:20.700Z,86.00
2018-11-29T10:07:47.493Z,86.42
2018-11-29T10:10:14.276Z,86.22
2018-11-29T10:12:41.077Z,86.01
2018-11-29T10:15:10.753Z,85.61
2018-11-29T10:17:37.593Z,85.68
2018-11-29T10:20:13.476Z,85.67
2018-11-29T10:22:41.128Z,87.72
2018-11-29T10:25:11.844Z,87.53
2018-11-29T10:27:38.765Z,88.28
2018-11-29T10:30:10.253Z,86.92
2018-11-29T10:32:37.021Z,85.81
2018-11-29T10:35:04.029Z,85.71
2018-11-29T10:37:30.800Z,85.09
2018-11-29T10:39:57.581Z,85.29
2018-11-29T10:42:24.369Z,85.20
2018-11-29T10:44:51.153Z,84.55
2018-11-29T10:47:17.924Z,83.62
2018-11-29T10:49:44.725Z,85.05
2018-11-29T10:52:11.488Z,84.57
2018-11-29T10:54:38.277Z,83.73
2018-11-29T10:57:05.804Z,84.99
2018-11-29T10:59:32.607Z,84.70
2018-11-29T11:02:20.155Z,83.19
2018-11-29T11:04:46.845Z,83.52
2018-11-29T11:07:13.621Z,82.40
2018-11-29T11:09:40.410Z,83.47
2018-11-29T11:12:07.191Z,83.21
2018-11-29T11:14:33.993Z,82.67
2018-11-29T11:17:00.762Z,81.97
2018-11-29T11:19:27.556Z,82.91
2018-11-29T11:21:54.334Z,81.92
2018-11-29T11:24:21.117Z,81.45
2018-11-29T11:26:47.888Z,81.50
2018-11-29T11:29:14.705Z,80.77
2018-11-29T11:31:41.498Z,80.06
2018-11-29T11:34:08.285Z,80.98
2018-11-29T11:36:35.049Z,81.52
2018-11-29T11:39:01.833Z,81.92
2018-11-29T11:41:28.605Z,80.62
2018-11-29T11:43:55.418Z,78.90
2018-11-29T11:46:22.165Z,79.88
2018-11-29T11:48:48.964Z,81.56
2018-11-29T11:51:15.840Z,81.95
2018-11-29T11:53:42.626Z,82.48
2018-11-29T11:56:09.396Z,82.01
2018-11-29T11:58:36.270Z,81.67
2018-11-29T12:01:03.076Z,82.80
2018-11-29T12:03:29.841Z,83.10
2018-11-29T12:05:56.661Z,82.00
2018-11-29T12:08:23.536Z,81.08
2018-11-29T12:10:50.374Z,83.42
2018-11-29T12:13:17.176Z,80.84
2018-11-29T12:15:43.928Z,82.07
2018-11-29T12:18:11.877Z,80.41
2018-11-29T12:20:38.730Z,79.68
2018-11-29T12:23:06.289Z,81.28
2018-11-29T12:25:33.077Z,81.15
2018-11-29T12:27:59.874Z,80.50
2018-11-29T12:30:30.621Z,80.28
2018-11-29T12:33:01.541Z,82.01
2018-11-29T12:35:28.361Z,80.29
2018-11-29T12:37:55.132Z,79.88
2018-11-29T12:40:21.941Z,79.99
2018-11-29T12:42:48.712Z,79.97
2018-11-29T12:45:15.509Z,80.57
2018-11-29T12:47:42.642Z,81.24
2018-11-29T12:50:26.901Z,81.10
2018-11-29T12:52:53.713Z,82.00
2018-11-29T12:55:21.693Z,82.36
2018-11-29T12:58:04.347Z,82.68
2018-11-29T13:00:20.289Z,81.34
2018-11-29T13:02:57.338Z,82.70
2018-11-29T13:05:24.729Z,82.67
2018-11-29T13:07:51.503Z,82.54
2018-11-29T13:10:19.961Z,82.04
2018-11-29T13:12:46.737Z,82.15
2018-11-29T13:15:16.442Z,82.15
2018-11-29T13:17:43.192Z,81.93
2018-11-29T13:20:11.108Z,82.44
2018-11-29T13:22:37.893Z,82.81
2018-11-29T13:25:07.365Z,82.31
2018-11-29T13:27:34.125Z,83.98
2018-11-29T13:30:00.914Z,85.04
2018-11-29T13:32:27.692Z,85.08
2018-11-29T13:34:54.457Z,84.64
2018-11-29T13:37:21.310Z,84.84
2018-11-29T13:39:48.029Z,85.21
2018-11-29T13:42:14.822Z,85.60
2018-11-29T13:44:41.586Z,87.97
2018-11-29T13:47:08.365Z,88.95
2018-11-29T13:49:35.132Z,88.78
2018-11-29T13:52:02.033Z,89.10
2018-11-29T13:54:28.692Z,88.70
2018-11-29T13:56:55.480Z,88.32
2018-11-29T13:59:22.241Z,87.42
2018-11-29T14:01:49.028Z,85.96
2018-11-29T14:04:15.796Z,86.86
2018-11-29T14:06:42.577Z,86.83
2018-11-29T14:09:09.517Z,86.78
2018-11-29T14:11:36.250Z,86.40
2018-11-29T14:14:03.068Z,85.81
2018-11-29T14:16:29.937Z,84.72
2018-11-29T14:18:56.696Z,85.54
2018-11-29T14:21:23.540Z,86.10
2018-11-29T14:23:50.369Z,88.33
2018-11-29T14:26:17.233Z,87.97
2018-11-29T14:28:44.010Z,86.06
2018-11-29T14:31:10.788Z,86.14
2018-11-29T14:33:37.564Z,86.58
2018-11-29T14:36:04.366Z,86.61
2018-11-29T14:38:31.124Z,86.21
2018-11-29T14:40:57.973Z,87.89
2018-11-29T14:43:24.728Z,87.39
2018-11-29T14:45:51.508Z,85.84
2018-11-29T14:48:18.377Z,88.77
2018-11-29T14:50:45.814Z,89.72
2018-11-29T14:53:12.585Z,90.77
2018-11-29T14:55:39.716Z,91.61
2018-11-29T14:58:07.808Z,92.50
2018-11-29T15:00:34.843Z,92.89
2018-11-29T15:03:03.933Z,91.53
2018-11-29T15:05:31.207Z,91.53
2018-11-29T15:07:58.090Z,91.51
2018-11-29T15:10:24.880Z,89.42
2018-11-29T15:12:51.684Z,89.27
2018-11-29T15:15:18.558Z,87.56
2018-11-29T15:17:46.108Z,88.78
2018-11-29T15:20:16.720Z,88.21
2018-11-29T15:22:43.751Z,87.52
2018-11-29T15:25:10.496Z,87.70
2018-11-29T15:27:37.290Z,87.75
2018-11-29T15:30:09.936Z,86.63
2018-11-29T15:32:36.713Z,84.61
2018-11-29T15:35:04.224Z,86.03
2018-11-29T15:37:31.011Z,86.05
2018-11-29T15:39:57.769Z,86.17
2018-11-29T15:42:24.585Z,87.66
2018-11-29T15:44:51.429Z,87.08
2018-11-29T15:47:18.229Z,86.09
2018-11-29T15:49:45.012Z,85.40
2018-11-29T15:52:11.807Z,85.69
2018-11-29T15:54:38.593Z,86.51
2018-11-29T15:57:05.373Z,86.36
2018-11-29T15:59:32.132Z,85.80
2018-11-29T16:01:58.892Z,85.35
2018-11-29T16:04:25.766Z,86.44
2018-11-29T16:06:52.540Z,86.08
2018-11-29T16:09:19.361Z,85.91
2018-11-29T16:11:46.127Z,87.43
2018-11-29T16:14:13.064Z,87.37
2018-11-29T16:16:39.828Z,87.96
2018-11-29T16:19:06.660Z,87.48
2018-11-29T16:21:33.426Z,87.22
2018-11-29T16:24:00.210Z,86.30
2018-11-29T16:26:27.040Z,87.34
2018-11-29T16:28:53.836Z,87.66
2018-11-29T16:31:20.608Z,89.67
2018-11-29T16:33:47.388Z,91.52
2018-11-29T16:36:14.157Z,92.83
2018-11-29T16:38:40.958Z,92.93
2018-11-29T16:41:07.724Z,92.60
2018-11-29T16:43:34.517Z,90.94
2018-11-29T16:46:01.269Z,91.48
2018-11-29T16:48:28.061Z,90.58
2018-11-29T16:50:54.841Z,89.36
2018-11-29T16:53:21.625Z,88.61
2018-11-29T16:55:48.462Z,88.56
2018-11-29T16:58:17.817Z,88.06
2018-11-29T17:00:44.573Z,87.93
2018-11-29T17:03:11.376Z,88.18
2018-11-29T17:05:38.144Z,88.77
2018-11-29T17:08:05.393Z,88.60
2018-11-29T17:10:32.165Z,88.64
2018-11-29T17:13:00.465Z,88.87
2018-11-29T17:15:27.228Z,88.86
2018-11-29T17:17:54.008Z,89.34
2018-11-29T17:20:20.786Z,89.48
2018-11-29T17:22:48.668Z,89.34
2018-11-29T17:25:15.472Z,89.67
2018-11-29T17:27:42.228Z,90.36
2018-11-29T17:30:12.713Z,89.54
2018-11-29T17:32:39.573Z,90.04
2018-11-29T17:35:06.457Z,89.60
2018-11-29T17:37:33.221Z,89.84
2018-11-29T17:40:00.073Z,89.57
2018-11-29T17:42:26.837Z,89.06
2018-11-29T17:44:53.609Z,88.40
2018-11-29T17:47:20.412Z,88.95
2018-11-29T17:49:47.235Z,89.32
2018-11-29T17:52:14.021Z,89.88
2018-11-29T17:54:40.809Z,90.14
2018-11-29T17:57:07.585Z,89.61
2018-11-29T17:59:34.380Z,89.29
2018-11-29T18:02:01.149Z,87.20
2018-11-29T18:04:28.047Z,89.31
2018-11-29T18:06:54.819Z,89.51
2018-11-29T18:09:21.616Z,89.92
2018-11-29T18:11:48.388Z,90.39
2018-11-29T18:14:15.175Z,91.15
2018-11-29T18:16:41.949Z,91.11
2018-11-29T18:19:13.167Z,87.53
2018-11-29T18:21:35.554Z,89.02
2018-11-29T18:24:02.364Z,89.41
2018-11-29T18:26:29.140Z,90.09
2018-11-29T18:28:55.932Z,90.60
2018-11-29T18:31:22.688Z,89.26
2018-11-29T18:33:49.480Z,87.71
2018-11-29T18:36:16.382Z,88.02
2018-11-29T18:38:43.226Z,89.75
2018-11-29T18:41:09.868Z,90.45
2018-11-29T18:43:36.781Z,89.82
2018-11-29T18:46:03.888Z,91.15
2018-11-29T18:48:30.645Z,89.91
2018-11-29T18:50:57.428Z,90.98
2018-11-29T18:53:24.204Z,89.10
2018-11-29T18:55:51.049Z,90.41
2018-11-29T18:58:18.024Z,90.90
2018-11-29T19:00:44.850Z,91.26
2018-11-29T19:03:11.608Z,90.86
2018-11-29T19:05:38.416Z,92.27
2018-11-29T19:08:07.085Z,93.45
2018-11-29T19:10:33.966Z,93.19
2018-11-29T19:13:01.997Z,92.95
2018-11-29T19:15:28.785Z,90.00
2018-11-29T19:17:55.586Z,91.30
2018-11-29T19:20:22.364Z,89.11
2018-11-29T19:22:49.133Z,90.54
2018-11-29T19:25:16.841Z,89.13
2018-11-29T19:27:43.598Z,89.78
2018-11-29T19:30:13.748Z,89.86
2018-11-29T19:32:40.513Z,90.40
2018-11-29T19:35:08.214Z,88.54
2018-11-29T19:37:35.053Z,90.05
2018-11-29T19:40:01.874Z,91.17
2018-11-29T19:42:28.627Z,91.02
2018-11-29T19:44:55.421Z,91.26
2018-11-29T19:47:22.214Z,91.68
2018-11-29T19:49:49.017Z,91.91
2018-11-29T19:52:15.793Z,91.94
2018-11-29T19:54:42.573Z,92.35
2018-11-29T19:57:09.333Z,92.92
2018-11-29T19:59:36.187Z,92.53
2018-11-29T20:02:02.985Z,92.99
2018-11-29T20:04:29.746Z,93.18
2018-11-29T20:06:56.540Z,93.02
2018-11-29T20:09:23.304Z,93.01
2018-11-29T20:11:50.080Z,92.91
2018-11-29T20:14:16.856Z,92.62
2018-11-29T20:16:43.642Z,92.50
2018-11-29T20:19:10.409Z,91.70
2018-11-29T20:21:37.237Z,89.01
2018-11-29T20:24:04.260Z,90.67
2018-11-29T20:26:31.044Z,91.32
2018-11-29T20:28:57.808Z,90.74
2018-11-29T20:31:24.593Z,91.12
2018-11-29T20:33:51.377Z,91.29
2018-11-29T20:36:18.171Z,90.88
2018-11-29T20:38:44.932Z,90.89
2018-11-29T20:41:11.717Z,91.06
2018-11-29T20:43:38.496Z,90.91
2018-11-29T20:46:05.545Z,90.51
2018-11-29T20:48:32.336Z,90.84
2018-11-29T20:50:59.560Z,88.89
2018-11-29T20:53:32.184Z,89.56
2018-11-29T20:55:58.972Z,89.77
2018-11-29T20:58:25.817Z,90.50
2018-11-29T21:00:52.573Z,89.23
2018-11-29T21:03:19.352Z,89.70
2018-11-29T21:05:46.125Z,89.94
2018-11-29T21:08:12.941Z,90.32
2018-11-29T21:10:39.733Z,90.28
2018-11-29T21:13:07.408Z,90.15
2018-11-29T21:15:37.209Z,90.29
2018-11-29T21:18:04.392Z,90.00
2018-11-29T21:20:31.153Z,89.94
2018-11-29T21:22:58.494Z,89.98
2018-11-29T21:25:25.341Z,90.31
2018-11-29T21:27:52.120Z,89.88
2018-11-29T21:30:18.867Z,90.63
2018-11-29T21:32:45.736Z,90.26
2018-11-29T21:35:13.704Z,90.77
2018-11-29T21:37:40.512Z,90.49
2018-11-29T21:40:11.185Z,90.09
2018-11-29T21:42:37.965Z,91.37
2018-11-29T21:45:04.752Z,90.74
2018-11-29T21:47:31.525Z,89.73
2018-11-29T21:49:58.325Z,87.75
2018-11-29T21:52:25.080Z,86.50
2018-11-29T21:54:51.864Z,88.55
2018-11-29T21:57:18.629Z,88.91
2018-11-29T21:59:45.460Z,89.15
2018-11-29T22:02:12.222Z,88.85
2018-11-29T22:04:38.993Z,89.10
2018-11-29T22:07:05.756Z,90.02
2018-11-29T22:09:32.532Z,90.18
2018-11-29T22:11:59.293Z,89.99
2018-11-29T22:14:26.081Z,87.79
2018-11-29T22:16:52.845Z,90.35
2018-11-29T22:19:19.609Z,90.21
2018-11-29T22:21:46.373Z,90.92
2018-11-29T22:24:13.169Z,90.93
2018-11-29T22:26:40.009Z,90.62
2018-11-29T22:29:06.760Z,91.31
2018-11-29T22:31:33.528Z,92.11
2018-11-29T22:34:00.312Z,90.37
2018-11-29T22:36:27.068Z,90.82
2018-11-29T22:38:53.853Z,90.77
2018-11-29T22:41:20.617Z,89.23
2018-11-29T22:43:47.441Z,89.99
2018-11-29T22:46:14.208Z,90.13
2018-11-29T22:48:40.985Z,90.22
2018-11-29T22:51:07.796Z,90.31
2018-11-29T22:53:34.586Z,90.92
2018-11-29T22:56:01.407Z,90.81
2018-11-29T22:58:28.227Z,90.76
2018-11-29T23:00:55.015Z,91.31
2018-11-29T23:03:21.737Z,91.49
2018-11-29T23:05:48.546Z,91.61
2018-11-29T23:08:15.305Z,91.63
2018-11-29T23:10:42.088Z,92.22
2018-11-29T23:13:08.853Z,93.71
2018-11-29T23:15:35.672Z,93.04
2018-11-29T23:18:02.437Z,93.26
2018-11-29T23:20:29.220Z,93.61
2018-11-29T23:22:56.011Z,94.31
2018-11-29T23:25:22.780Z,91.98
2018-11-29T23:27:49.630Z,93.06
2018-11-29T23:30:16.771Z,92.23
2018-11-29T23:32:43.717Z,93.26
2018-11-29T23:35:11.356Z,91.22
2018-11-29T23:37:38.116Z,91.56
2018-11-29T23:40:07.192Z,92.31
2018-11-29T23:42:33.957Z,93.51
2018-11-29T23:45:00.753Z,93.96
2018-11-29T23:47:27.517Z,93.62
2018-11-29T23:49:54.277Z,93.64
2018-11-29T23:52:21.028Z,92.83
2018-11-29T23:54:47.828Z,93.86
2018-11-29T23:57:14.595Z,93.73
2018-11-29T23:59:41.361Z,94.29
